createdAt,value
2022-08-08T00:00:52.258Z,66.80
2022-08-08T00:03:31.630Z,66.90
2022-08-08T00:06:47.397Z,67.10
2022-08-08T00:10:04.145Z,67.20
2022-08-08T00:14:14.597Z,67.70
2022-08-08T00:16:56.538Z,67.60
2022-08-08T00:20:07.571Z,67.40
2022-08-08T00:23:47.481Z,67.50
2022-08-08T00:27:02.319Z,67.60
2022-08-08T00:30:15.812Z,67.10
2022-08-08T00:33:29.142Z,66.90
2022-08-08T00:37:03.422Z,67.00
2022-08-08T00:41:12.144Z,67.20
2022-08-08T00:45:03.021Z,67.50
2022-08-08T00:48:59.182Z,67.60
2022-08-08T00:52:48.362Z,67.50
2022-08-08T00:56:50.404Z,67.40
2022-08-08T01:00:24.031Z,67.60
2022-08-08T01:04:14.146Z,67.50
2022-08-08T01:07:59.303Z,67.40
2022-08-08T01:12:05.297Z,67.60
2022-08-08T01:16:04.067Z,67.30
2022-08-08T01:20:03.194Z,67.50
2022-08-08T01:24:13.846Z,68.60
2022-08-08T01:28:07.656Z,67.80
2022-08-08T01:32:15.954Z,67.70
2022-08-08T01:36:00.946Z,68.00
2022-08-08T01:39:34.906Z,67.90
2022-08-08T01:42:59.457Z,68.10
2022-08-08T01:46:27.150Z,67.70
2022-08-08T01:49:46.916Z,68.00
2022-08-08T01:54:08.281Z,67.20
2022-08-08T01:56:37.080Z,68.10
2022-08-08T02:00:04.280Z,68.10
2022-08-08T02:03:55.351Z,68.60
2022-08-08T02:07:04.171Z,68.60
2022-08-08T02:10:55.205Z,68.10
2022-08-08T02:14:07.325Z,68.80
2022-08-08T02:17:20.458Z,68.20
2022-08-08T02:20:59.874Z,68.40
2022-08-08T02:24:14.863Z,68.60
2022-08-08T02:27:42.230Z,68.30
2022-08-08T02:31:04.801Z,68.50
2022-08-08T02:35:10.837Z,68.30
2022-08-08T02:38:54.043Z,68.90
2022-08-08T02:42:38.218Z,69.60
2022-08-08T02:46:28.695Z,69.10
2022-08-08T02:49:52.912Z,69.30
2022-08-08T02:53:22.405Z,68.90
2022-08-08T02:57:17.298Z,69.10
2022-08-08T03:01:17.974Z,68.70
2022-08-08T03:05:14.830Z,68.60
2022-08-08T03:09:33.366Z,69.90
2022-08-08T03:15:58.222Z,68.80
2022-08-08T03:17:12.493Z,69.20
2022-08-08T03:20:23.202Z,68.40
2022-08-08T03:23:56.724Z,68.40
2022-08-08T03:27:05.097Z,68.80
2022-08-08T03:30:28.329Z,69.10
2022-08-08T03:33:54.827Z,69.30
2022-08-08T03:36:55.502Z,68.50
2022-08-08T03:40:04.118Z,68.70
2022-08-08T03:43:16.348Z,69.00
2022-08-08T03:46:25.319Z,68.70
2022-08-08T03:49:59.010Z,69.10
2022-08-08T03:52:53.473Z,68.80
2022-08-08T03:56:04.597Z,68.60
2022-08-08T03:59:23.147Z,68.80
2022-08-08T04:02:33.188Z,68.50
2022-08-08T04:05:49.738Z,69.10
2022-08-08T04:08:53.718Z,68.60
2022-08-08T04:12:01.320Z,68.70
2022-08-08T04:15:07.282Z,68.90
2022-08-08T04:18:17.099Z,68.80
2022-08-08T04:21:22.881Z,69.00
2022-08-08T04:24:31.149Z,68.80
2022-08-08T04:28:02.346Z,68.90
2022-08-08T04:31:04.781Z,69.90
2022-08-08T04:34:09.423Z,68.90
2022-08-08T04:37:14.717Z,68.90
2022-08-08T04:40:18.055Z,69.00
2022-08-08T04:43:31.958Z,69.10
2022-08-08T04:46:46.110Z,69.10
2022-08-08T04:50:00.415Z,69.30
2022-08-08T04:53:14.255Z,69.80
2022-08-08T04:56:27.719Z,69.80
2022-08-08T04:59:41.895Z,69.40
2022-08-08T05:02:45.746Z,69.90
2022-08-08T05:05:53.436Z,69.90
2022-08-08T05:09:03.069Z,70.00
2022-08-08T05:12:10.337Z,69.40
2022-08-08T05:15:25.674Z,68.60
2022-08-08T05:18:48.845Z,68.30
2022-08-08T05:21:59.625Z,67.70
2022-08-08T05:25:06.607Z,67.90
2022-08-08T05:28:09.711Z,66.40
2022-08-08T05:32:04.164Z,65.30
2022-08-08T05:35:05.094Z,63.50
2022-08-08T05:38:30.346Z,63.10
2022-08-08T05:41:55.125Z,63.40
2022-08-08T05:45:25.742Z,62.50
2022-08-08T05:48:34.581Z,62.40
2022-08-08T05:51:49.194Z,63.60
2022-08-08T05:54:55.725Z,62.70
2022-08-08T05:58:17.313Z,62.70
2022-08-08T06:02:01.259Z,62.90
2022-08-08T06:05:33.795Z,63.00
2022-08-08T06:08:55.002Z,63.30
2022-08-08T06:12:05.268Z,63.60
2022-08-08T06:15:12.515Z,63.70
2022-08-08T06:18:30.133Z,63.90
2022-08-08T06:21:51.608Z,63.70
2022-08-08T06:25:00.865Z,63.80
2022-08-08T06:28:14.283Z,63.70
2022-08-08T06:31:32.274Z,63.60
2022-08-08T06:35:11.845Z,63.60
2022-08-08T06:38:27.784Z,64.00
2022-08-08T06:41:34.296Z,63.10
2022-08-08T06:44:42.825Z,63.20
2022-08-08T06:47:52.674Z,62.90
2022-08-08T06:51:07.722Z,62.70
2022-08-08T06:54:13.385Z,62.00
2022-08-08T06:57:18.668Z,61.60
2022-08-08T07:00:30.422Z,61.50
2022-08-08T07:04:38.021Z,60.40
2022-08-08T07:07:43.219Z,60.50
2022-08-08T07:10:52.195Z,60.60
2022-08-08T07:14:02.967Z,60.30
2022-08-08T07:17:14.228Z,59.90
2022-08-08T07:20:21.496Z,59.80
2022-08-08T07:24:02.096Z,59.40
2022-08-08T07:27:11.713Z,58.90
2022-08-08T07:30:25.686Z,58.60
2022-08-08T07:33:37.642Z,59.00
2022-08-08T07:36:50.350Z,58.80
2022-08-08T07:39:57.661Z,58.90
2022-08-08T07:43:09.126Z,58.40
2022-08-08T07:46:23.451Z,57.60
2022-08-08T07:49:27.779Z,57.10
2022-08-08T07:52:32.794Z,56.90
2022-08-08T07:55:38.946Z,56.00
2022-08-08T07:58:45.208Z,54.90
2022-08-08T08:02:36.388Z,54.40
2022-08-08T08:05:33.707Z,53.90
2022-08-08T08:08:52.225Z,53.90
2022-08-08T08:11:57.929Z,54.10
2022-08-08T08:15:08.839Z,53.50
2022-08-08T08:18:14.587Z,52.60
2022-08-08T08:21:19.130Z,53.90
2022-08-08T08:24:30.587Z,53.20
2022-08-08T08:27:35.783Z,52.70
2022-08-08T08:30:41.385Z,52.60
2022-08-08T08:33:50.585Z,52.10
2022-08-08T08:36:56.121Z,52.30
2022-08-08T08:40:02.889Z,52.30
2022-08-08T08:43:15.281Z,52.30
2022-08-08T08:46:25.968Z,52.10
2022-08-08T08:49:33.958Z,51.80
2022-08-08T08:52:59.459Z,51.60
2022-08-08T08:56:04.822Z,51.10
2022-08-08T08:59:15.032Z,51.40
2022-08-08T09:02:26.315Z,50.40
2022-08-08T09:05:54.334Z,49.10
2022-08-08T09:09:26.054Z,49.00
2022-08-08T09:12:47.942Z,47.00
2022-08-08T09:16:03.832Z,47.10
2022-08-08T09:19:08.667Z,47.70
2022-08-08T09:22:25.872Z,47.60
2022-08-08T09:25:47.507Z,47.90
2022-08-08T09:28:56.358Z,48.00
2022-08-08T09:32:12.129Z,48.00
2022-08-08T09:35:31.921Z,47.00
2022-08-08T09:38:54.167Z,47.10
2022-08-08T09:42:20.287Z,46.60
2022-08-08T09:45:54.945Z,46.30
2022-08-08T09:49:04.274Z,46.20
2022-08-08T09:52:56.726Z,47.00
2022-08-08T09:56:04.242Z,46.90
2022-08-08T09:59:50.207Z,46.60
2022-08-08T10:02:40.402Z,46.30
2022-08-08T10:05:46.869Z,46.40
2022-08-08T10:08:54.171Z,47.00
2022-08-08T10:12:26.147Z,46.70
2022-08-08T10:15:24.241Z,46.60
2022-08-08T10:18:29.798Z,46.60
2022-08-08T10:21:42.500Z,46.50
2022-08-08T10:25:05.343Z,47.10
2022-08-08T10:28:17.992Z,46.10
2022-08-08T10:31:47.925Z,45.70
2022-08-08T10:35:00.382Z,46.60
2022-08-08T10:38:08.553Z,46.30
2022-08-08T10:41:20.675Z,46.50
2022-08-08T10:44:30.479Z,45.70
2022-08-08T10:47:43.576Z,45.80
2022-08-08T10:50:47.614Z,45.80
2022-08-08T10:53:59.224Z,46.00
2022-08-08T10:57:08.924Z,45.70
2022-08-08T11:00:15.556Z,45.70
2022-08-08T11:03:52.485Z,45.30
2022-08-08T11:06:49.476Z,45.60
2022-08-08T11:09:52.874Z,45.80
2022-08-08T11:16:32.834Z,45.60
2022-08-08T11:19:37.807Z,45.90
2022-08-08T11:22:42.901Z,45.80
2022-08-08T11:25:52.690Z,46.00
2022-08-08T11:29:41.469Z,45.20
2022-08-08T11:32:47.956Z,45.50
2022-08-08T11:35:51.694Z,45.90
2022-08-08T11:38:56.632Z,46.20
2022-08-08T11:42:01.734Z,46.10
2022-08-08T11:45:18.451Z,46.00
2022-08-08T11:48:23.540Z,45.70
2022-08-08T11:51:39.753Z,46.10
2022-08-08T11:54:54.446Z,46.20
2022-08-08T11:58:08.485Z,46.60
2022-08-08T12:01:32.603Z,47.40
2022-08-08T12:04:39.298Z,48.40
2022-08-08T12:07:49.573Z,48.60
2022-08-08T12:11:14.318Z,48.90
2022-08-08T12:14:29.117Z,48.80
2022-08-08T12:17:44.400Z,48.90
2022-08-08T12:20:58.791Z,49.10
2022-08-08T12:24:10.651Z,49.20
2022-08-08T12:27:19.865Z,49.10
2022-08-08T12:30:33.446Z,49.60
2022-08-08T12:34:01.594Z,50.50
2022-08-08T12:37:08.463Z,49.50
2022-08-08T12:40:23.537Z,49.30
2022-08-08T12:43:46.160Z,48.60
2022-08-08T12:47:01.023Z,47.80
2022-08-08T12:50:07.059Z,47.90
2022-08-08T12:53:24.668Z,47.70
2022-08-08T12:56:35.965Z,47.30
2022-08-08T13:00:04.444Z,47.50
2022-08-08T13:03:09.580Z,47.80
2022-08-08T13:06:18.779Z,48.20
2022-08-08T13:09:43.221Z,48.50
2022-08-08T13:13:05.897Z,48.60
2022-08-08T13:16:21.629Z,48.60
2022-08-08T13:19:30.484Z,49.10
2022-08-08T13:23:31.202Z,48.10
2022-08-08T13:26:19.427Z,47.60
2022-08-08T13:29:23.418Z,48.10
2022-08-08T13:32:30.347Z,48.20
2022-08-08T13:35:39.081Z,48.10
2022-08-08T13:38:47.643Z,47.50
2022-08-08T13:42:00.075Z,47.20
2022-08-08T13:45:05.275Z,47.30
2022-08-08T13:48:15.864Z,47.60
2022-08-08T13:51:33.809Z,48.30
2022-08-08T13:54:49.549Z,48.30
2022-08-08T13:58:08.438Z,48.30
2022-08-08T14:01:19.150Z,48.40
2022-08-08T14:04:28.467Z,48.90
2022-08-08T14:07:34.542Z,48.90
2022-08-08T14:10:42.886Z,48.80
2022-08-08T14:13:59.031Z,48.90
2022-08-08T14:17:05.559Z,49.30
2022-08-08T14:20:14.862Z,49.40
2022-08-08T14:24:03.814Z,49.40
2022-08-08T14:27:20.366Z,49.60
2022-08-08T14:30:35.832Z,49.60
2022-08-08T14:33:39.694Z,50.00
2022-08-08T14:36:53.648Z,50.50
2022-08-08T14:40:05.467Z,50.80
2022-08-08T14:43:31.247Z,51.10
2022-08-08T14:46:34.232Z,51.70
2022-08-08T14:50:06.171Z,52.10
2022-08-08T14:53:07.234Z,52.30
2022-08-08T14:56:11.610Z,52.50
2022-08-08T14:59:22.448Z,52.80
2022-08-08T15:03:11.787Z,53.20
2022-08-08T15:06:16.627Z,53.40
2022-08-08T15:09:21.794Z,52.90
2022-08-08T15:12:27.990Z,52.80
2022-08-08T15:16:03.166Z,52.80
2022-08-08T15:18:56.967Z,52.80
2022-08-08T15:22:01.982Z,52.90
2022-08-08T15:25:08.652Z,52.90
2022-08-08T15:28:33.444Z,52.90
2022-08-08T15:32:02.964Z,52.80
2022-08-08T15:35:04.325Z,52.40
2022-08-08T15:38:13.477Z,52.20
2022-08-08T15:41:17.159Z,52.00
2022-08-08T15:44:28.605Z,51.60
2022-08-08T15:47:33.130Z,51.30
2022-08-08T15:50:53.747Z,52.00
2022-08-08T15:54:18.586Z,50.80
2022-08-08T15:57:40.003Z,50.30
2022-08-08T16:00:50.607Z,51.00
2022-08-08T16:03:56.210Z,50.80
2022-08-08T16:07:01.414Z,51.30
2022-08-08T16:13:03.268Z,51.60
2022-08-08T16:13:34.115Z,51.30
2022-08-08T16:16:50.859Z,51.60
2022-08-08T16:19:59.671Z,51.50
2022-08-08T16:23:04.638Z,51.30
2022-08-08T16:26:17.358Z,51.30
2022-08-08T16:29:37.127Z,51.20
2022-08-08T16:32:40.684Z,51.30
2022-08-08T16:35:49.571Z,51.10
2022-08-08T16:38:56.621Z,51.30
2022-08-08T16:42:00.927Z,51.30
2022-08-08T16:45:11.438Z,51.20
2022-08-08T16:48:37.009Z,51.20
2022-08-08T16:55:01.419Z,51.30
2022-08-08T16:55:42.665Z,51.40
2022-08-08T16:58:32.575Z,51.60
2022-08-08T17:01:39.448Z,51.70
2022-08-08T17:04:43.105Z,51.70
2022-08-08T17:07:51.516Z,51.60
2022-08-08T17:10:58.643Z,51.60
2022-08-08T17:14:18.747Z,51.50
2022-08-08T17:18:01.726Z,51.60
2022-08-08T17:20:46.122Z,52.10
2022-08-08T17:24:00.556Z,51.80
2022-08-08T17:27:07.773Z,52.10
2022-08-08T17:30:23.203Z,51.90
2022-08-08T17:34:52.812Z,52.00
2022-08-08T17:37:00.541Z,52.30
2022-08-08T17:40:14.745Z,52.50
2022-08-08T17:43:19.610Z,52.60
2022-08-08T17:46:45.295Z,53.00
2022-08-08T17:49:49.814Z,53.10
2022-08-08T17:52:57.429Z,53.10
2022-08-08T17:56:05.455Z,53.30
2022-08-08T17:59:11.189Z,53.50
2022-08-08T18:02:18.816Z,53.80
2022-08-08T18:05:25.098Z,53.80
2022-08-08T18:08:41.141Z,53.80
2022-08-08T18:11:51.023Z,54.00
2022-08-08T18:14:56.887Z,54.40
2022-08-08T18:18:09.094Z,54.30
2022-08-08T18:21:58.876Z,54.60
2022-08-08T18:24:52.980Z,55.00
2022-08-08T18:27:59.791Z,54.70
2022-08-08T18:31:06.881Z,55.00
2022-08-08T18:34:25.880Z,55.00
2022-08-08T18:37:34.583Z,55.20
2022-08-08T18:40:38.687Z,55.20
2022-08-08T18:43:43.568Z,55.20
2022-08-08T18:46:56.302Z,55.60
2022-08-08T18:50:03.131Z,55.70
2022-08-08T18:53:06.492Z,55.90
2022-08-08T18:56:20.831Z,56.30
2022-08-08T18:59:29.042Z,56.80
2022-08-08T19:02:48.578Z,57.50
2022-08-08T19:05:59.995Z,57.00
2022-08-08T19:09:03.230Z,57.40
2022-08-08T19:12:16.997Z,57.50
2022-08-08T19:15:25.939Z,57.70
2022-08-08T19:18:47.631Z,58.50
2022-08-08T19:21:54.045Z,58.50
2022-08-08T19:26:27.026Z,58.60
2022-08-08T19:28:25.963Z,59.10
2022-08-08T19:31:35.885Z,58.30
2022-08-08T19:34:41.416Z,58.10
2022-08-08T19:37:48.582Z,57.70
2022-08-08T19:41:01.545Z,57.80
2022-08-08T19:44:13.232Z,57.70
2022-08-08T19:47:34.037Z,57.80
2022-08-08T19:50:37.474Z,58.20
2022-08-08T19:53:53.142Z,58.30
2022-08-08T19:56:58.171Z,58.60
2022-08-08T20:00:02.180Z,58.90
2022-08-08T20:04:00.490Z,59.00
2022-08-08T20:06:39.656Z,59.40
2022-08-08T20:09:45.172Z,58.90
2022-08-08T20:14:13.904Z,58.60
2022-08-08T20:16:23.384Z,58.50
2022-08-08T20:19:43.339Z,58.70
2022-08-08T20:22:48.996Z,59.40
2022-08-08T20:25:56.996Z,59.50
2022-08-08T20:29:00.519Z,59.60
2022-08-08T20:32:13.298Z,59.90
2022-08-08T20:35:22.955Z,60.50
2022-08-08T20:38:37.800Z,60.50
2022-08-08T20:41:45.077Z,60.40
2022-08-08T20:44:55.032Z,60.70
2022-08-08T20:48:01.561Z,60.90
2022-08-08T20:51:06.926Z,61.60
2022-08-08T20:54:14.311Z,61.40
2022-08-08T20:57:20.925Z,61.50
2022-08-08T21:00:24.946Z,61.80
2022-08-08T21:03:30.922Z,62.80
2022-08-08T21:06:52.736Z,62.20
2022-08-08T21:10:08.112Z,63.50
2022-08-08T21:13:16.333Z,63.10
2022-08-08T21:16:20.665Z,63.40
2022-08-08T21:19:44.146Z,63.60
2022-08-08T21:22:50.701Z,63.90
2022-08-08T21:25:55.012Z,64.00
2022-08-08T21:29:01.067Z,63.90
2022-08-08T21:32:07.810Z,64.50
2022-08-08T21:36:16.630Z,64.30
2022-08-08T21:38:50.261Z,64.30
2022-08-08T21:41:59.291Z,64.40
2022-08-08T21:45:44.098Z,64.30
2022-08-08T21:48:30.422Z,64.20
2022-08-08T21:54:18.674Z,64.30
2022-08-08T21:56:06.595Z,64.70
2022-08-08T21:58:37.744Z,65.00
2022-08-08T22:01:42.500Z,65.00
2022-08-08T22:04:46.100Z,65.70
2022-08-08T22:07:50.169Z,65.70
2022-08-08T22:10:55.570Z,66.70
2022-08-08T22:13:59.945Z,65.70
2022-08-08T22:17:03.773Z,65.70
2022-08-08T22:20:12.987Z,65.80
2022-08-08T22:23:27.042Z,65.80
2022-08-08T22:27:01.660Z,66.10
2022-08-08T22:30:02.880Z,66.50
2022-08-08T22:33:09.224Z,66.50
2022-08-08T22:36:32.407Z,66.20
2022-08-08T22:39:45.861Z,66.00
2022-08-08T22:42:55.759Z,65.90
2022-08-08T22:45:58.932Z,66.10
2022-08-08T22:49:03.789Z,66.40
2022-08-08T22:52:09.226Z,66.70
2022-08-08T22:55:12.295Z,66.40
2022-08-08T22:58:18.824Z,66.70
2022-08-08T23:02:03.002Z,66.40
2022-08-08T23:05:02.142Z,66.00
2022-08-08T23:08:21.976Z,65.60
2022-08-08T23:11:31.139Z,67.10
2022-08-08T23:14:59.743Z,65.90
2022-08-08T23:18:15.330Z,66.20
2022-08-08T23:21:18.511Z,66.20
2022-08-08T23:24:24.354Z,66.40
2022-08-08T23:27:46.223Z,66.50
2022-08-08T23:30:53.584Z,66.70
2022-08-08T23:34:18.016Z,67.20
2022-08-08T23:37:24.507Z,67.20
2022-08-08T23:40:29.109Z,67.20
2022-08-08T23:43:45.849Z,67.30
2022-08-08T23:49:00.274Z,67.40
2022-08-08T23:50:30.824Z,68.30
2022-08-08T23:54:05.091Z,67.70
2022-08-08T23:56:58.386Z,67.50
